Time;durP1;ratioP1;P1;durP2;ratioP2;P2;SDS_P1;SDS_P2;PMS_P1;PMS_P2;Temp;Humidity;BMP_temperature;BMP_pressure;BME280_temperature;BME280_humidity;BME280_pressure;Samples;Min_cycle;Max_cycle;Signal;HPM_P1;HPM_P2
2021/07/02 00:02:00;;;;;;;38.87;25.13;;;15.60;99.90;;;;;;4957049;29;20261;-90
2021/07/02 00:04:25;;;;;;;40.60;27.70;;;16.10;99.90;;;;;;4957759;29;20477;-90
2021/07/02 00:06:53;;;;;;;43.70;26.10;;;15.60;99.90;;;;;;4957087;29;20171;-90
2021/07/02 00:09:19;;;;;;;43.40;27.67;;;16.30;99.90;;;;;;4957204;29;20181;-89
2021/07/02 00:11:45;;;;;;;43.77;29.30;;;17.10;99.90;;;;;;4958201;29;20858;-90
2021/07/02 00:14:11;;;;;;;40.40;24.90;;;;;;;;;;4957865;29;20178;-91
2021/07/02 00:16:36;;;;;;;42.60;28.77;;;14.80;98.20;;;;;;4941653;29;20433;-90
2021/07/02 00:19:03;;;;;;;48.40;31.30;;;14.60;98.90;;;;;;4956881;29;20454;-90
2021/07/02 00:21:29;;;;;;;42.87;28.47;;;16.40;99.90;;;;;;4957800;29;20201;-90
2021/07/02 00:23:54;;;;;;;40.23;25.93;;;17.10;99.90;;;;;;4956866;28;20461;-90
2021/07/02 00:26:20;;;;;;;43.03;29.97;;;16.30;99.90;;;;;;4957714;29;20410;-90
2021/07/02 00:28:46;;;;;;;41.83;27.70;;;14.50;99.90;;;;;;4958908;29;20183;-91
2021/07/02 00:31:12;;;;;;;37.43;25.77;;;14.50;99.90;;;;;;4957416;29;20185;-90
2021/07/02 00:33:37;;;;;;;46.00;27.00;;;16.90;99.90;;;;;;4942247;29;20661;-90
2021/07/02 00:36:03;;;;;;;42.57;26.50;;;14.00;99.90;;;;;;4957759;29;20415;-90
2021/07/02 00:38:29;;;;;;;46.07;26.90;;;15.50;99.90;;;;;;4959277;29;20234;-90
2021/07/02 00:40:55;;;;;;;38.60;26.70;;;14.60;99.90;;;;;;4958210;29;20791;-89
2021/07/02 00:43:23;;;;;;;42.40;26.57;;;15.60;99.90;;;;;;4959117;29;20229;-89
2021/07/02 00:45:49;;;;;;;40.93;26.60;;;15.40;99.90;;;;;;4959575;29;20209;-90
2021/07/02 00:48:15;;;;;;;43.70;26.03;;;;;;;;;;4958823;29;20791;-89
2021/07/02 00:50:44;;;;;;;45.20;27.30;;;15.00;99.90;;;;;;4939389;29;20227;-90
2021/07/02 00:53:11;;;;;;;43.10;27.10;;;16.20;99.90;;;;;;4954357;29;20419;-90
2021/07/02 00:55:37;;;;;;;40.07;27.20;;;16.80;99.90;;;;;;4941585;29;20978;-91
2021/07/02 00:58:04;;;;;;;56.43;27.30;;;17.00;99.90;;;;;;4954265;29;20419;-89
2021/07/02 01:00:30;;;;;;;53.60;31.07;;;14.90;99.90;;;;;;4955383;29;20219;-89
2021/07/02 01:02:56;;;;;;;53.67;29.00;;;13.70;99.90;;;;;;4960031;29;20423;-90
2021/07/02 01:05:22;;;;;;;51.07;30.73;;;;;;;;;;4942563;29;20446;-90
2021/07/02 01:07:48;;;;;;;57.60;31.87;;;14.70;99.90;;;;;;4945581;29;20242;-90
2021/07/02 01:10:17;;;;;;;50.63;31.33;;;16.40;99.90;;;;;;4947053;29;20434;-90
2021/07/02 01:12:43;;;;;;;52.90;30.80;;;16.70;99.90;;;;;;4946334;29;20415;-91
2021/07/02 01:15:22;;;;;;;49.20;28.57;;;14.40;99.90;;;;;;4946368;29;20434;-90
2021/07/02 01:17:48;;;;;;;57.13;32.23;;;16.20;99.90;;;;;;4947848;29;20451;-90
2021/07/02 01:20:14;;;;;;;62.13;30.90;;;;;;;;;;4969028;29;20475;-90
2021/07/02 01:22:40;;;;;;;50.27;29.67;;;14.70;99.90;;;;;;4955580;29;20222;-89
2021/07/02 01:25:06;;;;;;;58.07;31.20;;;17.60;99.90;;;;;;4953358;29;20430;-90
2021/07/02 01:27:33;;;;;;;57.10;32.77;;;14.60;99.90;;;;;;4961304;29;20175;-89
2021/07/02 01:29:58;;;;;;;49.17;29.03;;;16.50;99.90;;;;;;4943335;29;20510;-90
2021/07/02 01:32:24;;;;;;;48.30;29.47;;;13.50;99.90;;;;;;4959423;29;20446;-89
2021/07/02 01:34:50;;;;;;;54.07;32.13;;;;;;;;;;4943551;29;20176;-90
2021/07/02 01:37:16;;;;;;;56.70;29.47;;;14.40;99.90;;;;;;4945273;29;20408;-90
2021/07/02 01:39:42;;;;;;;57.10;31.73;;;15.50;99.90;;;;;;4946241;29;20506;-90
2021/07/02 01:42:11;;;;;;;56.83;32.03;;;17.50;99.90;;;;;;4962331;29;20411;-89
2021/07/02 01:44:39;;;;;;;56.83;30.57;;;16.00;99.90;;;;;;4946188;29;20430;-91
2021/07/02 01:47:05;;;;;;;54.17;27.10;;;16.60;99.90;;;;;;4963078;29;20426;-89
2021/07/02 01:49:31;;;;;;;50.73;30.83;;;14.90;99.90;;;;;;4972318;28;20467;-90
2021/07/02 01:51:57;;;;;;;58.60;31.57;;;;;;;;;;4960794;29;20418;-89
2021/07/02 01:54:23;;;;;;;47.43;28.17;;;14.70;99.90;;;;;;4954356;29;20194;-90
2021/07/02 01:56:49;;;;;;;56.43;31.57;;;16.10;99.90;;;;;;4960305;29;20428;-90
2021/07/02 01:59:19;;;;;;;64.40;29.93;;;17.80;99.90;;;;;;4960324;28;20535;-90
2021/07/02 02:01:47;;;;;;;52.43;29.73;;;17.20;99.90;;;;;;4959427;29;20418;-91
2021/07/02 02:04:13;;;;;;;50.63;27.53;;;16.60;99.90;;;;;;4945115;29;20427;-91
2021/07/02 02:06:40;;;;;;;51.83;28.93;;;15.70;99.90;;;;;;4961950;29;20416;-91
2021/07/02 02:09:06;;;;;;;55.07;29.53;;;14.50;99.90;;;;;;4947469;29;20431;-91
2021/07/02 02:11:33;;;;;;;48.17;27.90;;;13.50;99.90;;;;;;4949106;29;20451;-90
2021/07/02 02:13:59;;;;;;;58.83;31.10;;;14.60;99.90;;;;;;4945939;29;20434;-90
2021/07/02 02:16:25;;;;;;;50.00;30.17;;;17.10;99.90;;;;;;4946716;29;20415;-89
2021/07/02 02:18:51;;;;;;;56.20;29.50;;;11.80;99.90;;;;;;4963527;29;20498;-90
2021/07/02 02:21:17;;;;;;;46.30;28.37;;;17.00;99.90;;;;;;4947626;29;20424;-90
2021/07/02 02:23:43;;;;;;;45.17;26.37;;;;;;;;;;4963921;29;20901;-90
2021/07/02 02:26:09;;;;;;;53.13;28.97;;;14.60;99.90;;;;;;4944297;29;20179;-91
2021/07/02 02:28:35;;;;;;;57.50;30.00;;;15.30;99.90;;;;;;4929407;29;20499;-91
2021/07/02 02:31:01;;;;;;;60.93;30.13;;;16.80;99.90;;;;;;4944910;29;20176;-90
2021/07/02 02:33:26;;;;;;;51.60;28.87;;;15.40;99.90;;;;;;4959747;29;20466;-89
2021/07/02 02:35:52;;;;;;;55.57;28.23;;;;;;;;;;4944083;29;20171;-90
2021/07/02 02:38:18;;;;;;;52.43;29.67;;;14.60;99.90;;;;;;4944178;29;20179;-90
2021/07/02 02:40:44;;;;;;;56.87;29.53;;;15.20;99.90;;;;;;4946673;29;20423;-90
2021/07/02 02:43:10;;;;;;;61.90;31.60;;;;;;;;;;4961427;29;20417;-90
2021/07/02 02:45:36;;;;;;;56.27;30.07;;;14.60;99.90;;;;;;4947069;29;20175;-90
2021/07/02 02:48:05;;;;;;;54.63;30.47;;;15.10;99.90;;;;;;4949253;29;20499;-90
2021/07/02 02:50:30;;;;;;;55.47;29.50;;;14.70;99.90;;;;;;4963711;29;20234;-90
2021/07/02 02:52:56;;;;;;;49.13;25.83;;;;;;;;;;4934694;29;20805;-90
2021/07/02 02:55:22;;;;;;;47.80;27.53;;;14.40;99.90;;;;;;4952808;29;20182;-90
2021/07/02 02:57:48;;;;;;;45.65;27.40;;;;;;;;;;4624924;29;10000885;-90
2021/07/02 03:00:15;;;;;;;49.47;27.83;;;14.40;99.90;;;;;;4916331;29;20224;-90
2021/07/02 03:02:41;;;;;;;40.90;24.77;;;15.00;99.90;;;;;;4909233;29;20444;-90
2021/07/02 03:05:07;;;;;;;49.37;27.63;;;16.50;99.90;;;;;;4943018;29;20420;-90
2021/07/02 03:07:33;;;;;;;53.30;27.87;;;16.70;99.90;;;;;;4938174;29;20441;-90
2021/07/02 03:09:59;;;;;;;45.90;26.87;;;;;;;;;;4931327;29;20455;-90
2021/07/02 03:12:25;;;;;;;48.60;27.13;;;14.00;99.90;;;;;;4915344;29;20186;-90
2021/07/02 03:14:53;;;;;;;55.63;30.17;;;17.80;99.90;;;;;;4929392;29;20427;-89
2021/07/02 03:17:21;;;;;;;50.77;28.83;;;15.50;99.90;;;;;;4913392;29;20415;-90
2021/07/02 03:19:47;;;;;;;47.83;24.00;;;14.90;99.90;;;;;;4913596;29;20574;-91
2021/07/02 03:22:13;;;;;;;45.63;25.43;;;15.80;99.90;;;;;;4931362;29;20412;-90
2021/07/02 03:24:39;;;;;;;51.10;28.93;;;14.50;99.90;;;;;;4931188;29;20754;-90
2021/07/02 03:27:09;;;;;;;52.60;27.40;;;15.40;99.90;;;;;;4930035;29;20536;-91
2021/07/02 03:29:36;;;;;;;42.33;26.20;;;16.80;99.90;;;;;;4927682;29;20409;-90
2021/07/02 03:32:03;;;;;;;45.37;26.93;;;15.00;99.90;;;;;;4932467;29;20484;-90
2021/07/02 03:34:31;;;;;;;48.13;27.37;;;15.50;99.90;;;;;;4913770;29;20420;-91
2021/07/02 03:36:57;;;;;;;46.60;28.53;;;15.20;99.90;;;;;;4931024;29;20946;-90
2021/07/02 03:39:23;;;;;;;49.10;30.30;;;;;;;;;;4930285;29;20468;-90
2021/07/02 03:41:51;;;;;;;50.50;28.90;;;14.20;99.90;;;;;;4898878;29;20184;-90
2021/07/02 03:44:17;;;;;;;49.90;29.27;;;14.10;99.90;;;;;;4929344;29;20428;-89
2021/07/02 03:46:43;;;;;;;57.07;31.60;;;;;;;;;;4929575;29;20839;-91
2021/07/02 03:49:08;;;;;;;41.23;26.67;;;14.30;99.90;;;;;;4915623;29;20234;-90
2021/07/02 03:51:35;;;;;;;50.10;25.37;;;13.80;99.90;;;;;;4946911;29;20416;-90
2021/07/02 03:54:04;;;;;;;41.17;25.67;;;15.40;99.90;;;;;;4932694;29;20177;-91
2021/07/02 03:56:35;;;;;;;37.37;24.53;;;14.50;99.90;;;;;;4948810;29;20483;-90
2021/07/02 03:59:01;;;;;;;39.33;25.57;;;14.30;99.90;;;;;;4930173;29;20546;-91
2021/07/02 04:01:27;;;;;;;39.67;23.73;;;;;;;;;;4930442;29;20443;-91
2021/07/02 04:03:52;;;;;;;44.57;25.57;;;14.50;99.90;;;;;;4945031;29;20231;-89
2021/07/02 04:06:18;;;;;;;37.03;25.20;;;;;;;;;;4942595;29;20416;-90
2021/07/02 04:08:44;;;;;;;33.97;22.27;;;14.70;99.90;;;;;;4946031;29;20200;-90
2021/07/02 04:11:10;;;;;;;38.47;25.03;;;16.00;99.90;;;;;;4929583;29;20432;-90
2021/07/02 04:13:36;;;;;;;35.70;23.43;;;;;;;;;;4931868;29;20313;-90
2021/07/02 04:16:02;;;;;;;40.47;24.60;;;14.70;99.30;;;;;;4947060;29;20211;-91
2021/07/02 04:18:27;;;;;;;39.50;22.97;;;14.70;99.90;;;;;;4945383;29;20432;-91
2021/07/02 04:20:57;;;;;;;40.10;25.93;;;14.70;99.60;;;;;;4930933;29;20425;-90
2021/07/02 04:23:24;;;;;;;47.73;25.90;;;15.60;99.90;;;;;;4947968;29;20211;-89
2021/07/02 04:25:51;;;;;;;38.20;26.00;;;17.00;99.90;;;;;;4946719;29;20432;-89
2021/07/02 04:28:18;;;;;;;37.77;26.13;;;19.00;99.90;;;;;;4930279;29;20409;-90
2021/07/02 04:30:44;;;;;;;42.50;25.17;;;17.30;99.90;;;;;;4945382;29;20549;-88
2021/07/02 04:33:10;;;;;;;35.50;23.87;;;;;;;;;;4930733;29;20503;-90
2021/07/02 04:35:36;;;;;;;37.40;23.63;;;14.70;99.40;;;;;;4933232;29;20558;-90
2021/07/02 04:38:03;;;;;;;45.93;23.87;;;14.40;99.90;;;;;;4947138;29;20515;-89
2021/07/02 04:40:30;;;;;;;46.17;24.30;;;14.70;99.90;;;;;;4946743;29;20283;-90
2021/07/02 04:43:02;;;;;;;41.13;22.57;;;14.70;99.90;;;;;;4945700;29;20420;-88
2021/07/02 04:45:37;;;;;;;40.57;24.63;;;17.50;99.90;;;;;;4936395;29;20795;-89
2021/07/02 04:48:13;;;;;;;39.83;21.80;;;16.30;99.90;;;;;;4947228;29;20432;-90
2021/07/02 04:50:39;;;;;;;36.33;23.07;;;17.50;99.90;;;;;;4948965;29;20483;-89
2021/07/02 04:53:05;;;;;;;32.23;21.13;;;15.60;99.90;;;;;;4947463;29;20428;-89
2021/07/02 04:55:34;;;;;;;35.33;23.27;;;16.40;99.90;;;;;;4930767;29;20434;-90
2021/07/02 04:58:01;;;;;;;38.47;24.70;;;15.70;99.90;;;;;;4929187;29;20179;-88
2021/07/02 05:00:27;;;;;;;37.07;23.20;;;17.10;99.90;;;;;;4942522;29;20537;-90
2021/07/02 05:02:53;;;;;;;34.53;23.90;;;13.60;99.90;;;;;;4945300;29;20490;-89
2021/07/02 05:05:20;;;;;;;43.87;25.63;;;;;;;;;;4944194;29;20207;-89
2021/07/02 05:07:48;;;;;;;40.53;25.47;;;15.00;98.20;;;;;;4928102;29;20228;-90
2021/07/02 05:10:14;;;;;;;34.07;22.67;;;15.70;98.70;;;;;;4930192;29;20420;-90
2021/07/02 05:12:41;;;;;;;40.47;23.27;;;18.70;99.90;;;;;;4947432;29;20451;-87
2021/07/02 05:15:07;;;;;;;40.13;25.53;;;15.10;97.70;;;;;;4946909;29;20184;-89
2021/07/02 05:17:33;;;;;;;33.27;22.50;;;15.40;99.90;;;;;;4938712;29;20432;-89
2021/07/02 05:19:59;;;;;;;42.83;22.53;;;18.70;99.90;;;;;;4955900;29;20531;-89
2021/07/02 05:22:25;;;;;;;29.53;21.20;;;18.00;99.90;;;;;;4947843;29;20179;-90
2021/07/02 05:24:52;;;;;;;31.67;21.63;;;16.10;99.20;;;;;;4930241;29;20430;-89
2021/07/02 05:27:18;;;;;;;40.47;22.93;;;15.50;95.80;;;;;;4926958;29;20427;-89
2021/07/02 05:29:44;;;;;;;32.57;21.00;;;17.40;99.90;;;;;;4943211;29;20542;-89
2021/07/02 05:32:16;;;;;;;32.00;19.80;;;16.10;95.70;;;;;;4943604;29;20416;-88
2021/07/02 05:37:21;;;;;;;29.30;21.60;;;16.70;91.90;;;;;;5495553;23;20620;-91
2021/07/02 05:39:49;;;;;;;30.30;19.70;;;16.90;91.90;;;;;;5074561;23;20501;-88
2021/07/02 05:42:38;;;;;;;28.83;19.10;;;16.90;92.10;;;;;;4973032;28;20445;-92
2021/07/02 05:48:00;;;;;;;23.40;19.40;;;17.50;87.80;;;;;;5067335;23;20537;-91
2021/07/02 05:50:32;;;;;;;30.20;18.40;;;18.00;87.20;;;;;;5210419;23;20512;-89
2021/07/02 05:55:44;;;;;;;18.97;17.00;;;18.60;79.40;;;;;;5236788;23;20875;-90
2021/07/02 05:58:12;;;;;;;23.80;18.20;;;21.70;79.00;;;;;;4950072;29;20427;-89
2021/07/02 06:00:40;;;;;;;26.83;19.03;;;18.40;80.00;;;;;;4944467;29;20517;-88
2021/07/02 06:03:06;;;;;;;21.27;17.53;;;18.90;78.70;;;;;;4925698;29;20490;-89
2021/07/02 06:05:35;;;;;;;25.00;16.80;;;20.80;75.80;;;;;;4947037;29;20476;-88
2021/07/02 06:08:06;;;;;;;21.53;17.00;;;19.10;68.50;;;;;;4945790;29;20163;-89
2021/07/02 06:10:34;;;;;;;28.53;15.50;;;20.30;69.20;;;;;;4929676;29;20434;-88
2021/07/02 06:13:00;;;;;;;17.87;14.60;;;20.40;64.70;;;;;;4931729;29;20423;-89
2021/07/02 06:15:26;;;;;;;16.10;13.97;;;18.70;59.80;;;;;;4942981;29;20429;-89
2021/07/02 06:17:53;;;;;;;18.80;15.47;;;19.20;65.50;;;;;;4940654;29;20455;-88
2021/07/02 06:20:25;;;;;;;15.33;13.10;;;19.80;59.90;;;;;;4926208;29;20839;-86
2021/07/02 06:22:54;;;;;;;14.17;12.50;;;21.70;59.10;;;;;;4926299;29;20962;-91
2021/07/02 06:25:26;;;;;;;15.90;13.13;;;21.40;58.10;;;;;;4943107;29;20431;-88
2021/07/02 06:27:52;;;;;;;17.20;14.50;;;21.70;54.90;;;;;;4941006;29;20411;-90
2021/07/02 06:30:18;;;;;;;14.47;13.03;;;22.90;54.50;;;;;;4926027;29;20439;-90
2021/07/02 06:32:44;;;;;;;14.73;12.80;;;22.00;57.60;;;;;;4941271;29;20438;-89
2021/07/02 06:35:10;;;;;;;12.67;10.63;;;23.60;54.90;;;;;;4931105;29;20431;-90
2021/07/02 06:37:36;;;;;;;12.17;10.87;;;22.50;54.00;;;;;;4938007;29;20427;-90
2021/07/02 06:40:04;;;;;;;11.53;10.13;;;20.30;54.60;;;;;;4595496;29;10000219;-91
2021/07/02 06:42:34;;;;;;;9.07;8.27;;;23.50;52.80;;;;;;4950547;29;20179;-91
2021/07/02 06:45:02;;;;;;;9.37;8.43;;;23.50;52.60;;;;;;4935070;29;20431;-89
2021/07/02 06:47:29;;;;;;;7.73;6.70;;;23.00;49.40;;;;;;4935064;29;20493;-87
2021/07/02 06:49:55;;;;;;;9.30;8.50;;;23.20;49.00;;;;;;4932963;29;20428;-88
2021/07/02 06:52:23;;;;;;;9.60;8.70;;;23.10;48.50;;;;;;4930894;29;20416;-90
2021/07/02 06:54:48;;;;;;;9.20;7.50;;;23.20;50.10;;;;;;4927599;29;20206;-90
2021/07/02 06:57:15;;;;;;;11.20;8.23;;;22.80;50.40;;;;;;4926461;29;20472;-88
2021/07/02 06:59:41;;;;;;;9.73;8.77;;;24.10;48.90;;;;;;4929847;29;20216;-88
2021/07/02 07:02:12;;;;;;;7.93;7.13;;;25.20;51.20;;;;;;4932493;29;20515;-89
2021/07/02 07:04:38;;;;;;;17.40;15.40;;;25.30;47.90;;;;;;4917016;29;20244;-89
2021/07/02 07:07:25;;;;;;;9.17;8.37;;;25.90;48.60;;;;;;4934696;29;20432;-89
2021/07/02 07:09:53;;;;;;;8.53;7.83;;;24.00;45.80;;;;;;5063969;23;20517;-89
2021/07/02 07:12:19;;;;;;;9.90;9.00;;;23.30;45.00;;;;;;4958108;29;20445;-89
2021/07/02 07:14:49;;;;;;;9.47;8.77;;;24.30;47.40;;;;;;5002855;23;20506;-90
2021/07/02 07:17:35;;;;;;;8.60;7.73;;;23.30;45.50;;;;;;4978323;23;20448;-86
2021/07/02 07:20:00;;;;;;;7.50;6.90;;;25.00;45.80;;;;;;4955206;28;20469;-88
2021/07/02 07:22:31;;;;;;;7.17;6.57;;;25.10;46.80;;;;;;4969684;28;20438;-90
2021/07/02 07:25:04;;;;;;;7.87;7.07;;;26.50;46.70;;;;;;4958341;29;20407;-88
2021/07/02 07:27:34;;;;;;;6.73;6.30;;;23.80;47.60;;;;;;4974077;28;20426;-87
2021/07/02 07:29:59;;;;;;;6.50;6.10;;;24.00;45.70;;;;;;4969278;28;20436;-86
2021/07/02 07:32:33;;;;;;;5.67;5.13;;;26.60;47.30;;;;;;4970752;28;20898;-90
2021/07/02 07:35:05;;;;;;;5.23;4.60;;;23.90;49.10;;;;;;4970286;28;20194;-91
2021/07/02 07:40:08;;;;;;;4.63;4.13;;;24.40;43.70;;;;;;4970141;28;20497;-90
2021/07/02 07:42:42;;;;;;;4.00;3.77;;;27.60;44.90;;;;;;4958755;28;20415;-89
2021/07/02 07:45:13;;;;;;;4.67;4.57;;;26.40;41.60;;;;;;4976546;28;20506;-91
2021/07/02 07:47:39;;;;;;;6.77;4.77;;;25.10;42.30;;;;;;4967977;28;20450;-91
2021/07/02 07:53:27;;;;;;;5.03;4.73;;;25.70;42.90;;;;;;4971967;28;20246;-89
2021/07/02 07:55:56;;;;;;;4.93;4.53;;;24.70;43.60;;;;;;4970893;28;20433;-89
2021/07/02 07:58:44;;;;;;;4.17;4.07;;;26.80;46.30;;;;;;4987165;28;20505;-92
2021/07/02 08:01:11;;;;;;;4.13;3.83;;;23.20;40.50;;;;;;4954198;29;20430;-90
2021/07/02 08:03:37;;;;;;;3.53;3.30;;;23.60;41.90;;;;;;4968579;28;20407;-91
2021/07/02 08:06:08;;;;;;;3.53;3.33;;;26.20;42.40;;;;;;4971878;28;20422;-93
2021/07/02 08:08:37;;;;;;;4.03;3.93;;;27.00;40.00;;;;;;4971102;28;20425;-93
2021/07/02 08:11:25;;;;;;;3.57;3.40;;;26.20;41.70;;;;;;4986211;28;20422;-92
2021/07/02 08:14:17;;;;;;;6.33;5.70;;;27.50;41.30;;;;;;4981522;28;20493;-91
2021/07/02 08:16:42;;;;;;;2.80;2.70;;;26.20;41.70;;;;;;4969475;28;20422;-88
2021/07/02 08:19:20;;;;;;;3.77;3.57;;;28.60;38.20;;;;;;4970513;28;20229;-92
2021/07/02 08:22:14;;;;;;;2.13;2.03;;;29.00;38.50;;;;;;4966396;28;20170;-93
2021/07/02 08:24:50;;;;;;;3.20;3.00;;;29.40;35.40;;;;;;4971555;28;20411;-93
2021/07/02 08:27:28;;;;;;;2.70;2.70;;;28.10;36.90;;;;;;4969537;28;20842;-91
2021/07/02 08:30:33;;;;;;;2.53;2.53;;;27.60;37.30;;;;;;4968750;28;20418;-91
2021/07/02 08:33:15;;;;;;;2.70;2.70;;;28.70;38.30;;;;;;4968406;28;20428;-88
2021/07/02 08:35:49;;;;;;;3.00;2.90;;;27.50;36.60;;;;;;4966881;28;20454;-89
2021/07/02 08:38:19;;;;;;;3.27;3.00;;;28.40;35.80;;;;;;4949322;29;20822;-89
2021/07/02 08:40:57;;;;;;;3.97;3.87;;;25.40;34.10;;;;;;4969712;28;20474;-91
2021/07/02 08:43:22;;;;;;;5.30;5.00;;;27.80;36.30;;;;;;4955041;29;20524;-90
2021/07/02 08:46:01;;;;;;;4.33;4.13;;;27.10;38.50;;;;;;4966707;28;20454;-92
2021/07/02 08:48:31;;;;;;;4.83;4.63;;;27.20;37.60;;;;;;4955240;29;20174;-89
2021/07/02 08:51:29;;;;;;;3.80;3.60;;;27.00;37.40;;;;;;4973029;28;20505;-91
2021/07/02 08:54:17;;;;;;;;;;;;;;;;;;;;;
2021/07/02 08:56:58;;;;;;;17.93;16.20;;;28.80;36.70;;;;;;4972738;28;20453;-89
2021/07/02 08:59:47;;;;;;;4.03;3.83;;;30.10;34.80;;;;;;4968215;28;20509;-92
2021/07/02 09:02:40;;;;;;;4.30;4.20;;;31.90;36.00;;;;;;4959028;28;20486;-91
2021/07/02 09:05:45;;;;;;;4.20;4.00;;;32.10;35.50;;;;;;4968183;28;20423;-89
2021/07/02 09:08:16;;;;;;;4.70;4.37;;;30.90;32.50;;;;;;4296085;28;10000442;-92
2021/07/02 09:10:54;;;;;;;5.93;5.63;;;30.60;33.80;;;;;;4967777;28;20229;-90
2021/07/02 09:13:42;;;;;;;4.53;4.33;;;28.70;35.30;;;;;;4984563;28;20452;-89
2021/07/02 09:16:44;;;;;;;4.13;4.03;;;31.20;37.60;;;;;;4972252;28;20432;-89
2021/07/02 09:19:24;;;;;;;4.40;4.17;;;30.60;36.10;;;;;;4969674;28;20519;-89
2021/07/02 09:22:11;;;;;;;3.67;3.57;;;30.40;37.50;;;;;;4968032;28;20432;-87
2021/07/02 09:24:54;;;;;;;3.87;3.77;;;29.20;37.10;;;;;;4960604;28;20432;-90
2021/07/02 09:27:41;;;;;;;;;;;;;;;;;;;;;
2021/07/02 09:30:52;;;;;;;6.90;6.50;;;30.30;35.00;;;;;;4969539;28;20852;-90
2021/07/02 09:33:18;;;;;;;3.97;3.87;;;29.00;34.60;;;;;;4968268;28;20452;-89
2021/07/02 09:35:48;;;;;;;4.40;4.20;;;31.30;36.20;;;;;;4963566;28;20485;-88
2021/07/02 09:38:32;;;;;;;4.27;4.07;;;29.10;35.40;;;;;;4960039;29;20521;-89
2021/07/02 09:40:58;;;;;;;3.80;3.63;;;28.20;36.70;;;;;;4933718;29;20473;-90
2021/07/02 09:43:31;;;;;;;4.27;3.87;;;27.60;39.60;;;;;;4957625;29;20454;-90
2021/07/02 09:46:03;;;;;;;4.00;3.80;;;26.50;36.80;;;;;;4949684;28;20426;-89
2021/07/02 09:48:34;;;;;;;3.97;3.87;;;25.90;39.30;;;;;;4950830;29;20832;-89
2021/07/02 09:51:02;;;;;;;4.67;4.30;;;26.00;40.50;;;;;;4948936;29;20426;-91
2021/07/02 09:53:30;;;;;;;4.80;4.60;;;26.80;40.80;;;;;;4951171;28;20418;-88
2021/07/02 09:55:58;;;;;;;4.37;4.17;;;25.50;40.50;;;;;;4951364;28;20891;-91
2021/07/02 09:58:41;;;;;;;5.03;4.73;;;26.80;41.20;;;;;;4963354;28;20469;-90
2021/07/02 10:01:13;;;;;;;4.67;4.47;;;25.20;40.90;;;;;;4951650;29;20430;-92
2021/07/02 10:03:48;;;;;;;3.73;3.63;;;27.40;42.00;;;;;;4963760;28;20422;-89
2021/07/02 10:06:28;;;;;;;4.17;3.90;;;28.40;44.00;;;;;;4949735;29;20422;-91
2021/07/02 10:09:00;;;;;;;4.77;4.47;;;26.40;39.60;;;;;;4966288;28;20440;-86
2021/07/02 10:11:25;;;;;;;4.10;3.87;;;26.60;40.30;;;;;;4966810;28;20422;-90
2021/07/02 10:13:51;;;;;;;4.37;4.00;;;26.00;41.90;;;;;;4971295;29;20437;-89
2021/07/02 10:16:18;;;;;;;5.30;4.80;;;27.00;41.90;;;;;;4973272;28;20197;-89
2021/07/02 10:18:50;;;;;;;4.80;4.70;;;26.00;40.10;;;;;;4958090;28;20454;-91
2021/07/02 10:21:19;;;;;;;4.60;4.40;;;28.40;39.60;;;;;;4961980;28;20431;-88
2021/07/02 10:23:56;;;;;;;5.13;4.93;;;27.20;39.60;;;;;;4966496;28;20417;-90
2021/07/02 10:26:25;;;;;;;5.40;4.97;;;26.00;39.50;;;;;;4967283;29;20402;-88
2021/07/02 10:28:52;;;;;;;6.83;4.93;;;25.20;40.60;;;;;;4966216;28;20406;-88
2021/07/02 10:31:27;;;;;;;4.60;4.40;;;25.30;43.60;;;;;;4959302;28;20452;-89
2021/07/02 10:33:55;;;;;;;5.97;5.57;;;25.20;41.00;;;;;;4947947;28;20511;-91
2021/07/02 10:36:41;;;;;;;5.47;5.17;;;24.60;42.50;;;;;;4932960;28;20441;-89
2021/07/02 10:39:28;;;;;;;5.77;5.47;;;24.50;43.50;;;;;;4971815;28;20486;-92
2021/07/02 10:42:34;;;;;;;5.40;5.20;;;24.90;44.00;;;;;;4947545;29;20422;-89
2021/07/02 10:45:14;;;;;;;5.30;5.10;;;23.80;44.60;;;;;;4874154;29;20433;-91
2021/07/02 10:47:53;;;;;;;7.27;5.77;;;23.80;43.70;;;;;;4874423;29;20424;-88
2021/07/02 10:50:44;;;;;;;6.50;5.77;;;25.30;43.80;;;;;;4949889;29;20449;-91
2021/07/02 10:53:42;;;;;;;;;;;;;;;;;;;;;
2021/07/02 10:56:57;;;;;;;5.70;5.40;;;26.10;43.00;;;;;;4961324;28;20502;-89
2021/07/02 11:00:12;;;;;;;6.20;5.60;;;25.90;42.80;;;;;;4923787;29;20499;-89
2021/07/02 11:02:41;;;;;;;5.50;5.23;;;26.90;43.30;;;;;;4874257;29;20446;-90
2021/07/02 11:05:27;;;;;;;5.47;5.17;;;26.90;41.50;;;;;;4903344;29;20913;-88
2021/07/02 11:07:54;;;;;;;4.90;4.70;;;27.50;39.70;;;;;;4918907;29;20459;-92
2021/07/02 11:10:46;;;;;;;8.57;5.20;;;27.70;40.10;;;;;;4930864;29;20483;-91
2021/07/02 11:13:42;;;;;;;5.80;5.47;;;29.70;40.00;;;;;;4937187;29;20475;-92
2021/07/02 11:16:15;;;;;;;5.37;5.07;;;27.90;37.70;;;;;;4953238;29;20414;-90
2021/07/02 11:18:43;;;;;;;5.63;5.17;;;28.90;38.50;;;;;;4935366;29;20426;-88
2021/07/02 11:21:15;;;;;;;5.20;5.00;;;28.50;38.90;;;;;;4949446;29;20454;-90
2021/07/02 11:23:43;;;;;;;5.70;5.40;;;29.50;39.80;;;;;;4935262;29;20438;-93
2021/07/02 11:29:03;;;;;;;5.50;5.20;;;28.90;38.20;;;;;;4950667;29;20449;-90
2021/07/02 11:31:37;;;;;;;5.70;5.40;;;28.60;37.20;;;;;;4949070;29;20407;-89
2021/07/02 11:34:14;;;;;;;5.00;4.63;;;27.40;39.90;;;;;;4952732;29;20439;-89
2021/07/02 11:37:02;;;;;;;5.63;5.43;;;27.30;38.60;;;;;;4935966;29;20435;-91
2021/07/02 11:39:30;;;;;;;5.07;4.87;;;25.90;40.00;;;;;;4938034;29;20474;-87
2021/07/02 11:42:08;;;;;;;5.23;4.80;;;27.30;38.70;;;;;;4953736;29;20419;-88
2021/07/02 11:44:34;;;;;;;5.93;5.43;;;25.80;36.30;;;;;;4902973;29;20418;-89
2021/07/02 11:47:00;;;;;;;6.27;5.97;;;29.20;36.90;;;;;;4950099;29;20479;-91
2021/07/02 11:49:27;;;;;;;7.30;6.80;;;28.80;34.70;;;;;;4952622;29;20415;-90
2021/07/02 11:51:57;;;;;;;6.57;6.13;;;28.90;37.10;;;;;;4933500;29;20191;-88
2021/07/02 11:54:27;;;;;;;6.53;6.07;;;28.90;39.90;;;;;;4950489;29;20422;-88
2021/07/02 11:56:53;;;;;;;6.30;5.90;;;29.50;39.10;;;;;;4953288;29;20442;-91
2021/07/02 11:59:24;;;;;;;6.90;6.40;;;28.80;39.10;;;;;;4949811;29;20482;-91
2021/07/02 12:01:54;;;;;;;8.23;7.30;;;26.90;38.30;;;;;;4932093;29;20243;-89
2021/07/02 12:04:21;;;;;;;8.60;7.40;;;26.60;41.80;;;;;;4951155;29;20432;-89
2021/07/02 12:06:49;;;;;;;7.33;7.03;;;28.20;44.90;;;;;;4950210;29;20744;-89
2021/07/02 12:09:28;;;;;;;8.90;8.07;;;27.80;42.30;;;;;;4934086;28;20442;-88
2021/07/02 12:11:59;;;;;;;9.17;8.57;;;25.40;41.70;;;;;;4952064;29;20755;-90
2021/07/02 12:14:35;;;;;;;12.10;8.60;;;25.60;43.10;;;;;;4950391;29;20399;-88
2021/07/02 12:17:04;;;;;;;10.57;9.53;;;27.30;43.30;;;;;;4949939;29;20423;-88
2021/07/02 12:19:32;;;;;;;10.13;9.43;;;25.70;42.00;;;;;;4948356;29;20467;-91
2021/07/02 12:22:00;;;;;;;11.57;10.70;;;26.80;42.80;;;;;;4956651;28;20494;-90
2021/07/02 12:24:33;;;;;;;13.40;12.00;;;25.80;42.80;;;;;;4942898;29;20454;-87
2021/07/02 12:27:02;;;;;;;12.30;11.23;;;26.00;41.90;;;;;;4942960;28;20523;-92
2021/07/02 12:29:42;;;;;;;13.57;12.27;;;27.60;42.50;;;;;;4937351;28;20431;-89
2021/07/02 12:32:23;;;;;;;15.60;13.93;;;27.40;40.90;;;;;;4956899;29;20439;-92
2021/07/02 12:34:56;;;;;;;14.17;13.07;;;26.20;41.30;;;;;;4956081;29;20517;-89
2021/07/02 12:37:29;;;;;;;15.07;13.40;;;25.90;45.60;;;;;;4935189;29;20457;-89
2021/07/02 12:39:59;;;;;;;12.80;11.80;;;27.00;44.00;;;;;;4949251;29;20558;-93
2021/07/02 12:42:32;;;;;;;12.87;11.87;;;25.90;43.50;;;;;;4950300;29;20474;-90
2021/07/02 12:44:59;;;;;;;13.53;12.40;;;25.80;42.10;;;;;;4949886;29;20431;-92
2021/07/02 12:47:30;;;;;;;14.80;12.67;;;24.90;42.80;;;;;;4933886;29;20443;-91
2021/07/02 12:50:17;;;;;;;14.10;12.73;;;27.00;41.40;;;;;;4949731;29;20439;-90
2021/07/02 12:55:37;;;;;;;17.27;15.83;;;26.10;39.70;;;;;;5013500;23;20497;-88
2021/07/02 12:58:06;;;;;;;17.10;15.70;;;28.00;44.30;;;;;;4945468;29;20435;-89
2021/07/02 13:00:33;;;;;;;18.07;16.43;;;25.60;43.00;;;;;;4945659;29;20529;-88
2021/07/02 13:03:01;;;;;;;17.20;15.20;;;26.10;42.40;;;;;;4945321;29;20431;-88
2021/07/02 13:05:29;;;;;;;15.73;14.40;;;;;;;;;;4945932;29;20730;-89
2021/07/02 13:07:55;;;;;;;19.80;18.10;;;28.60;39.00;;;;;;4939440;29;20510;-87
2021/07/02 13:10:27;;;;;;;18.27;16.93;;;29.10;39.40;;;;;;4941252;29;20450;-87
2021/07/02 13:13:21;;;;;;;16.80;15.60;;;30.90;36.80;;;;;;4940166;29;20419;-86
2021/07/02 13:15:47;;;;;;;13.20;12.30;;;31.10;36.60;;;;;;4902105;29;20526;-88
2021/07/02 13:18:29;;;;;;;16.03;14.47;;;30.30;36.50;;;;;;4940741;29;20442;-86
2021/07/02 13:21:08;;;;;;;14.90;13.60;;;28.30;35.90;;;;;;4940943;29;20214;-85
2021/07/02 13:23:37;;;;;;;14.87;13.47;;;29.00;37.50;;;;;;4942719;29;20414;-87